URMM

Details ICAO URMM (MRV)
Name MINERALNYYE VODY
Region Russia
Timezone Europe/Moscow (UTC+3.0)
Plans Departing 109
Arriving 100
Stats Elevation 1,054 ft / 321 m (AMSL)
Location 44.225073° 43.081891°
Runways 1
Magnetic Variation 7.426° E
Sunrise 2018-05-25 01:33:18 UTC / 2018-05-25 04:33:18 Local
Sunset 2018-05-25 16:38:46 UTC / 2018-05-25 19:38:46 Local
Advertisement - Login to hide

Runways

ID Width Length Bearing (true) Bearing (mag) Surface Threshold Offset Overrun Length
12 197 ft / 60 m 12,766 ft / 3,891 m 122.28° 114.85° Concrete 0 ft / 0 m 240 ft / 73 m
30 197 ft / 60 m 12,766 ft / 3,891 m 302.31° 294.88° Concrete 0 ft / 0 m 250 ft / 76 m

Map

Weather


0- 5 10 15 20 25 30 35+ Temperature / ° C

Clouds and Precipitation
Forecast for 2018-05-25 18:00 UTC. Updated 2 hours ago

Ground ~20,000 ft ~40,000 ft Winds

METAR

URMM 251930Z 27003MPS 9999 SCT052CB BKN/// 20/16 Q1011 R30/090070 NOSIG RMK QFE730/0974

TAF

TAF URMM 251700Z 2518/2618 27003G08MPS 9999 BKN030 TX23/2611Z TN14/2602Z TEMPO 2518/2618 VRB05G12MPS 3100 -TSRAGR BKN011 BKN020CB

Frequencies

Recorded 127.40 MHz ATIS
Tower 128.00 MHz START
Ground 121.90 MHz TAXIING
Approach 119.30 MHz APP
Warning: Do not use this data for real-world aviation or navigation. No guarantee of current accuracy is given.